sensor_id;sensor_type;location;lat;lon;timestamp;temperature;humidity
72380;SHT30;60354;47.798;12.472;2023-01-29T00:01:27;-1.37;86.30
72380;SHT30;60354;47.798;12.472;2023-01-29T00:03:52;-1.50;85.02
72380;SHT30;60354;47.798;12.472;2023-01-29T00:06:18;-1.48;84.97
72380;SHT30;60354;47.798;12.472;2023-01-29T00:08:44;-1.43;84.53
72380;SHT30;60354;47.798;12.472;2023-01-29T00:11:10;-1.53;84.52
72380;SHT30;60354;47.798;12.472;2023-01-29T00:13:35;-1.72;84.28
72380;SHT30;60354;47.798;12.472;2023-01-29T00:16:02;-1.70;85.24
72380;SHT30;60354;47.798;12.472;2023-01-29T00:18:28;-1.71;84.84
72380;SHT30;60354;47.798;12.472;2023-01-29T00:20:54;-1.91;84.83
72380;SHT30;60354;47.798;12.472;2023-01-29T00:23:20;-1.88;86.43
72380;SHT30;60354;47.798;12.472;2023-01-29T00:25:46;-1.94;87.64
72380;SHT30;60354;47.798;12.472;2023-01-29T00:28:12;-2.06;87.22
72380;SHT30;60354;47.798;12.472;2023-01-29T00:30:38;-2.18;86.06
72380;SHT30;60354;47.798;12.472;2023-01-29T00:33:04;-2.06;86.11
72380;SHT30;60354;47.798;12.472;2023-01-29T00:35:30;-2.28;84.67
72380;SHT30;60354;47.798;12.472;2023-01-29T00:37:56;-2.16;87.54
72380;SHT30;60354;47.798;12.472;2023-01-29T00:40:22;-2.19;89.55
72380;SHT30;60354;47.798;12.472;2023-01-29T00:42:48;-2.21;87.46
72380;SHT30;60354;47.798;12.472;2023-01-29T00:45:33;-2.15;86.07
72380;SHT30;60354;47.798;12.472;2023-01-29T00:48:04;-2.06;86.01
72380;SHT30;60354;47.798;12.472;2023-01-29T00:50:30;-1.92;84.77
72380;SHT30;60354;47.798;12.472;2023-01-29T00:52:56;-1.99;85.02
72380;SHT30;60354;47.798;12.472;2023-01-29T00:55:21;-2.01;84.03
72380;SHT30;60354;47.798;12.472;2023-01-29T00:57:47;-1.99;84.07
72380;SHT30;60354;47.798;12.472;2023-01-29T01:00:15;-2.02;84.86
72380;SHT30;60354;47.798;12.472;2023-01-29T01:02:41;-1.98;84.23
72380;SHT30;60354;47.798;12.472;2023-01-29T01:05:25;-2.02;84.82
72380;SHT30;60354;47.798;12.472;2023-01-29T01:07:52;-1.92;84.76
72380;SHT30;60354;47.798;12.472;2023-01-29T01:10:32;-1.85;87.12
72380;SHT30;60354;47.798;12.472;2023-01-29T01:13:05;-1.99;85.25
72380;SHT30;60354;47.798;12.472;2023-01-29T01:15:34;-2.01;87.48
72380;SHT30;60354;47.798;12.472;2023-01-29T01:18:01;-1.97;86.91
72380;SHT30;60354;47.798;12.472;2023-01-29T01:20:30;-1.97;85.68
72380;SHT30;60354;47.798;12.472;2023-01-29T01:22:55;-1.98;86.55
72380;SHT30;60354;47.798;12.472;2023-01-29T01:25:23;-1.84;88.33
72380;SHT30;60354;47.798;12.472;2023-01-29T01:27:53;-1.88;87.06
72380;SHT30;60354;47.798;12.472;2023-01-29T01:30:19;-1.85;87.52
72380;SHT30;60354;47.798;12.472;2023-01-29T01:32:44;-1.82;87.23
72380;SHT30;60354;47.798;12.472;2023-01-29T01:35:10;-1.85;86.71
72380;SHT30;60354;47.798;12.472;2023-01-29T01:37:36;-1.91;87.48
72380;SHT30;60354;47.798;12.472;2023-01-29T01:40:10;-1.89;86.30
72380;SHT30;60354;47.798;12.472;2023-01-29T01:42:43;-1.85;88.21
72380;SHT30;60354;47.798;12.472;2023-01-29T01:45:24;-1.79;88.29
72380;SHT30;60354;47.798;12.472;2023-01-29T01:48:00;-1.85;86.61
72380;SHT30;60354;47.798;12.472;2023-01-29T01:50:41;-1.84;85.83
72380;SHT30;60354;47.798;12.472;2023-01-29T01:53:11;-1.82;87.62
72380;SHT30;60354;47.798;12.472;2023-01-29T01:55:47;-1.88;87.51
72380;SHT30;60354;47.798;12.472;2023-01-29T02:01:05;-1.88;86.89
72380;SHT30;60354;47.798;12.472;2023-01-29T02:03:34;-1.81;86.86
72380;SHT30;60354;47.798;12.472;2023-01-29T02:06:21;-1.71;86.36
72380;SHT30;60354;47.798;12.472;2023-01-29T02:09:10;-1.66;88.65
72380;SHT30;60354;47.798;12.472;2023-01-29T02:11:56;-1.78;88.57
72380;SHT30;60354;47.798;12.472;2023-01-29T02:14:21;-1.78;88.54
72380;SHT30;60354;47.798;12.472;2023-01-29T02:16:47;-1.74;87.71
72380;SHT30;60354;47.798;12.472;2023-01-29T02:22:21;-1.57;86.74
72380;SHT30;60354;47.798;12.472;2023-01-29T02:28:23;-1.40;86.36
72380;SHT30;60354;47.798;12.472;2023-01-29T02:31:05;-1.37;86.43
72380;SHT30;60354;47.798;12.472;2023-01-29T02:33:47;-1.27;85.69
72380;SHT30;60354;47.798;12.472;2023-01-29T02:42:02;-1.17;85.61
72380;SHT30;60354;47.798;12.472;2023-01-29T02:47:33;-1.15;84.86
72380;SHT30;60354;47.798;12.472;2023-01-29T02:50:02;-1.23;84.84
72380;SHT30;60354;47.798;12.472;2023-01-29T02:52:37;-1.21;85.08
72380;SHT30;60354;47.798;12.472;2023-01-29T02:55:15;-1.20;85.44
72380;SHT30;60354;47.798;12.472;2023-01-29T02:57:45;-1.15;86.22
72380;SHT30;60354;47.798;12.472;2023-01-29T03:00:18;-1.10;87.52
72380;SHT30;60354;47.798;12.472;2023-01-29T03:03:10;-1.13;85.72
72380;SHT30;60354;47.798;12.472;2023-01-29T03:05:57;-1.12;85.95
72380;SHT30;60354;47.798;12.472;2023-01-29T03:08:31;-1.07;85.77
72380;SHT30;60354;47.798;12.472;2023-01-29T03:11:08;-1.09;85.68
72380;SHT30;60354;47.798;12.472;2023-01-29T03:18:56;-0.98;85.10
72380;SHT30;60354;47.798;12.472;2023-01-29T03:21:30;-0.93;84.91
72380;SHT30;60354;47.798;12.472;2023-01-29T03:24:25;-0.92;85.04
72380;SHT30;60354;47.798;12.472;2023-01-29T03:27:15;-0.99;84.75
72380;SHT30;60354;47.798;12.472;2023-01-29T03:30:02;-0.93;84.92
72380;SHT30;60354;47.798;12.472;2023-01-29T03:33:10;-0.92;84.89
72380;SHT30;60354;47.798;12.472;2023-01-29T03:35:42;-0.89;84.58
72380;SHT30;60354;47.798;12.472;2023-01-29T03:38:13;-0.98;84.34
72380;SHT30;60354;47.798;12.472;2023-01-29T03:40:58;-0.95;84.18
72380;SHT30;60354;47.798;12.472;2023-01-29T03:49:17;-0.99;84.60
72380;SHT30;60354;47.798;12.472;2023-01-29T03:52:17;-0.99;84.29
72380;SHT30;60354;47.798;12.472;2023-01-29T03:54:59;-1.06;84.10
72380;SHT30;60354;47.798;12.472;2023-01-29T03:57:57;-1.02;84.09
72380;SHT30;60354;47.798;12.472;2023-01-29T04:00:40;-1.02;83.91
72380;SHT30;60354;47.798;12.472;2023-01-29T04:03:32;-1.10;83.79
72380;SHT30;60354;47.798;12.472;2023-01-29T04:06:06;-1.23;84.01
72380;SHT30;60354;47.798;12.472;2023-01-29T04:08:44;-1.26;84.35
72380;SHT30;60354;47.798;12.472;2023-01-29T04:11:13;-1.27;84.57
72380;SHT30;60354;47.798;12.472;2023-01-29T04:13:40;-1.32;84.56
72380;SHT30;60354;47.798;12.472;2023-01-29T04:16:11;-1.44;84.38
72380;SHT30;60354;47.798;12.472;2023-01-29T04:18:52;-1.43;84.48
72380;SHT30;60354;47.798;12.472;2023-01-29T04:21:24;-1.44;84.51
72380;SHT30;60354;47.798;12.472;2023-01-29T04:23:50;-1.43;84.20
72380;SHT30;60354;47.798;12.472;2023-01-29T04:40:17;-1.46;84.56
72380;SHT30;60354;47.798;12.472;2023-01-29T04:45:27;-1.44;85.13
72380;SHT30;60354;47.798;12.472;2023-01-29T04:48:12;-1.48;83.72
72380;SHT30;60354;47.798;12.472;2023-01-29T04:53:42;-1.39;83.30
72380;SHT30;60354;47.798;12.472;2023-01-29T04:58:46;-1.48;82.42
72380;SHT30;60354;47.798;12.472;2023-01-29T05:01:15;-1.57;82.07
72380;SHT30;60354;47.798;12.472;2023-01-29T05:03:46;-1.68;82.37
72380;SHT30;60354;47.798;12.472;2023-01-29T05:06:14;-1.78;82.31
72380;SHT30;60354;47.798;12.472;2023-01-29T05:08:40;-1.91;83.22
72380;SHT30;60354;47.798;12.472;2023-01-29T05:11:06;-1.82;83.39
72380;SHT30;60354;47.798;12.472;2023-01-29T05:13:35;-1.74;84.45
72380;SHT30;60354;47.798;12.472;2023-01-29T05:18:43;-1.94;85.49
72380;SHT30;60354;47.798;12.472;2023-01-29T05:21:08;-2.02;84.58
72380;SHT30;60354;47.798;12.472;2023-01-29T05:23:34;-2.06;85.61
72380;SHT30;60354;47.798;12.472;2023-01-29T05:26:00;-2.05;83.43
72380;SHT30;60354;47.798;12.472;2023-01-29T05:28:25;-2.18;82.46
72380;SHT30;60354;47.798;12.472;2023-01-29T05:30:53;-2.15;84.04
72380;SHT30;60354;47.798;12.472;2023-01-29T05:33:29;-2.09;83.58
72380;SHT30;60354;47.798;12.472;2023-01-29T05:35:57;-2.12;82.84
72380;SHT30;60354;47.798;12.472;2023-01-29T05:38:23;-2.23;83.50
72380;SHT30;60354;47.798;12.472;2023-01-29T05:40:49;-2.19;83.81
72380;SHT30;60354;47.798;12.472;2023-01-29T05:43:23;-2.16;83.58
72380;SHT30;60354;47.798;12.472;2023-01-29T05:45:56;-2.15;83.78
72380;SHT30;60354;47.798;12.472;2023-01-29T05:48:22;-2.15;83.54
72380;SHT30;60354;47.798;12.472;2023-01-29T05:50:48;-2.08;83.74
72380;SHT30;60354;47.798;12.472;2023-01-29T05:53:14;-2.08;83.14
72380;SHT30;60354;47.798;12.472;2023-01-29T05:55:43;-2.03;82.93
72380;SHT30;60354;47.798;12.472;2023-01-29T05:58:10;-1.95;83.59
72380;SHT30;60354;47.798;12.472;2023-01-29T06:00:35;-1.97;82.77
72380;SHT30;60354;47.798;12.472;2023-01-29T06:03:01;-1.99;81.97
72380;SHT30;60354;47.798;12.472;2023-01-29T06:05:27;-1.99;82.85
72380;SHT30;60354;47.798;12.472;2023-01-29T06:07:52;-2.33;82.49
72380;SHT30;60354;47.798;12.472;2023-01-29T06:10:18;-2.39;84.60
72380;SHT30;60354;47.798;12.472;2023-01-29T06:12:44;-2.50;82.12
72380;SHT30;60354;47.798;12.472;2023-01-29T06:15:10;-2.38;84.72
72380;SHT30;60354;47.798;12.472;2023-01-29T06:17:36;-2.40;85.82
72380;SHT30;60354;47.798;12.472;2023-01-29T06:20:02;-2.38;85.04
72380;SHT30;60354;47.798;12.472;2023-01-29T06:22:28;-2.46;82.53
72380;SHT30;60354;47.798;12.472;2023-01-29T06:24:53;-2.57;83.08
72380;SHT30;60354;47.798;12.472;2023-01-29T06:27:19;-2.54;85.12
72380;SHT30;60354;47.798;12.472;2023-01-29T06:29:44;-2.61;84.33
72380;SHT30;60354;47.798;12.472;2023-01-29T06:32:10;-2.73;83.55
72380;SHT30;60354;47.798;12.472;2023-01-29T06:34:35;-2.66;82.24
72380;SHT30;60354;47.798;12.472;2023-01-29T06:37:01;-2.87;84.56
72380;SHT30;60354;47.798;12.472;2023-01-29T06:39:26;-2.91;85.17
72380;SHT30;60354;47.798;12.472;2023-01-29T06:41:51;-3.00;85.62
72380;SHT30;60354;47.798;12.472;2023-01-29T06:44:17;-3.08;83.45
72380;SHT30;60354;47.798;12.472;2023-01-29T06:46:42;-3.32;83.08
72380;SHT30;60354;47.798;12.472;2023-01-29T06:49:08;-3.23;83.30
72380;SHT30;60354;47.798;12.472;2023-01-29T06:51:34;-3.16;85.88
72380;SHT30;60354;47.798;12.472;2023-01-29T06:54:00;-3.27;83.78
72380;SHT30;60354;47.798;12.472;2023-01-29T06:56:25;-3.27;84.15
72380;SHT30;60354;47.798;12.472;2023-01-29T06:58:51;-3.23;84.60
72380;SHT30;60354;47.798;12.472;2023-01-29T07:01:16;-3.21;84.56
72380;SHT30;60354;47.798;12.472;2023-01-29T07:03:42;-3.16;84.19
72380;SHT30;60354;47.798;12.472;2023-01-29T07:06:08;-3.04;86.05
72380;SHT30;60354;47.798;12.472;2023-01-29T07:08:38;-2.98;84.96
72380;SHT30;60354;47.798;12.472;2023-01-29T07:11:05;-2.98;84.22
72380;SHT30;60354;47.798;12.472;2023-01-29T07:13:31;-2.83;84.63
72380;SHT30;60354;47.798;12.472;2023-01-29T07:15:57;-2.83;83.08
72380;SHT30;60354;47.798;12.472;2023-01-29T07:18:23;-2.77;83.34
72380;SHT30;60354;47.798;12.472;2023-01-29T07:20:49;-2.85;82.71
72380;SHT30;60354;47.798;12.472;2023-01-29T07:23:14;-2.87;82.77
72380;SHT30;60354;47.798;12.472;2023-01-29T07:25:40;-2.84;83.63
72380;SHT30;60354;47.798;12.472;2023-01-29T07:28:06;-2.83;82.71
72380;SHT30;60354;47.798;12.472;2023-01-29T07:30:32;-2.85;82.51
72380;SHT30;60354;47.798;12.472;2023-01-29T07:33:05;-2.85;82.32
72380;SHT30;60354;47.798;12.472;2023-01-29T07:35:35;-2.90;82.37
72380;SHT30;60354;47.798;12.472;2023-01-29T07:38:01;-2.92;82.36
72380;SHT30;60354;47.798;12.472;2023-01-29T07:40:26;-2.83;83.14
72380;SHT30;60354;47.798;12.472;2023-01-29T07:42:57;-2.83;81.97
72380;SHT30;60354;47.798;12.472;2023-01-29T07:45:23;-2.83;82.34
72380;SHT30;60354;47.798;12.472;2023-01-29T07:47:51;-2.88;82.30
72380;SHT30;60354;47.798;12.472;2023-01-29T07:50:17;-2.85;82.37
72380;SHT30;60354;47.798;12.472;2023-01-29T07:52:43;-2.67;81.76
72380;SHT30;60354;47.798;12.472;2023-01-29T07:55:08;-2.60;81.43
72380;SHT30;60354;47.798;12.472;2023-01-29T07:57:34;-2.50;80.88
72380;SHT30;60354;47.798;12.472;2023-01-29T07:59:59;-2.36;80.27
72380;SHT30;60354;47.798;12.472;2023-01-29T08:02:25;-2.29;80.52
72380;SHT30;60354;47.798;12.472;2023-01-29T08:04:50;-2.26;79.84
72380;SHT30;60354;47.798;12.472;2023-01-29T08:07:16;-2.22;79.69
72380;SHT30;60354;47.798;12.472;2023-01-29T08:09:41;-2.19;79.59
72380;SHT30;60354;47.798;12.472;2023-01-29T08:12:06;-2.10;79.20
72380;SHT30;60354;47.798;12.472;2023-01-29T08:14:32;-2.15;79.39
72380;SHT30;60354;47.798;12.472;2023-01-29T08:16:58;-2.15;79.57
72380;SHT30;60354;47.798;12.472;2023-01-29T08:19:23;-2.08;79.07
72380;SHT30;60354;47.798;12.472;2023-01-29T08:21:48;-1.99;79.32
72380;SHT30;60354;47.798;12.472;2023-01-29T08:24:14;-1.99;78.71
72380;SHT30;60354;47.798;12.472;2023-01-29T08:26:39;-1.92;78.52
72380;SHT30;60354;47.798;12.472;2023-01-29T08:29:05;-1.74;78.05
72380;SHT30;60354;47.798;12.472;2023-01-29T08:31:30;-1.58;77.89
72380;SHT30;60354;47.798;12.472;2023-01-29T08:33:56;-1.43;77.61
72380;SHT30;60354;47.798;12.472;2023-01-29T08:36:23;-1.42;77.58
72380;SHT30;60354;47.798;12.472;2023-01-29T08:38:48;-1.44;79.92
72380;SHT30;60354;47.798;12.472;2023-01-29T08:41:13;-0.95;84.01
72380;SHT30;60354;47.798;12.472;2023-01-29T08:43:39;-1.07;76.33
72380;SHT30;60354;47.798;12.472;2023-01-29T08:46:06;-1.17;76.39
72380;SHT30;60354;47.798;12.472;2023-01-29T08:48:32;-1.10;76.16
72380;SHT30;60354;47.798;12.472;2023-01-29T08:50:58;-1.05;76.07
72380;SHT30;60354;47.798;12.472;2023-01-29T08:53:24;-0.92;75.63
72380;SHT30;60354;47.798;12.472;2023-01-29T08:55:50;-0.58;75.27
72380;SHT30;60354;47.798;12.472;2023-01-29T08:58:16;-0.31;74.70
72380;SHT30;60354;47.798;12.472;2023-01-29T09:00:41;-0.06;73.58
72380;SHT30;60354;47.798;12.472;2023-01-29T09:03:07;0.00;72.65
72380;SHT30;60354;47.798;12.472;2023-01-29T09:05:37;0.25;72.64
72380;SHT30;60354;47.798;12.472;2023-01-29T09:08:04;0.34;72.25
72380;SHT30;60354;47.798;12.472;2023-01-29T09:10:29;0.40;71.54
72380;SHT30;60354;47.798;12.472;2023-01-29T09:12:55;0.58;71.05
72380;SHT30;60354;47.798;12.472;2023-01-29T09:15:20;0.56;71.12
72380;SHT30;60354;47.798;12.472;2023-01-29T09:17:46;0.85;72.57
72380;SHT30;60354;47.798;12.472;2023-01-29T09:20:14;0.93;70.54
72380;SHT30;60354;47.798;12.472;2023-01-29T09:22:41;0.92;69.69
72380;SHT30;60354;47.798;12.472;2023-01-29T09:25:07;0.99;70.21
72380;SHT30;60354;47.798;12.472;2023-01-29T09:27:32;1.07;70.12
72380;SHT30;60354;47.798;12.472;2023-01-29T09:29:58;1.20;70.37
72380;SHT30;60354;47.798;12.472;2023-01-29T09:32:23;1.23;69.20
72380;SHT30;60354;47.798;12.472;2023-01-29T09:34:49;1.33;68.41
72380;SHT30;60354;47.798;12.472;2023-01-29T09:37:14;1.34;67.86
72380;SHT30;60354;47.798;12.472;2023-01-29T09:39:42;1.40;68.16
72380;SHT30;60354;47.798;12.472;2023-01-29T09:42:22;1.59;67.46
72380;SHT30;60354;47.798;12.472;2023-01-29T09:47:34;1.30;69.63
72380;SHT30;60354;47.798;12.472;2023-01-29T09:50:05;1.00;70.20
72380;SHT30;60354;47.798;12.472;2023-01-29T09:52:39;0.58;70.34
72380;SHT30;60354;47.798;12.472;2023-01-29T10:00:02;0.41;72.75
72380;SHT30;60354;47.798;12.472;2023-01-29T10:10:49;0.92;70.12
72380;SHT30;60354;47.798;12.472;2023-01-29T10:13:57;1.03;70.44
72380;SHT30;60354;47.798;12.472;2023-01-29T10:25:03;0.80;71.04
72380;SHT30;60354;47.798;12.472;2023-01-29T10:27:33;0.97;71.84
72380;SHT30;60354;47.798;12.472;2023-01-29T10:30:06;1.04;70.42
72380;SHT30;60354;47.798;12.472;2023-01-29T10:32:36;1.03;69.17
72380;SHT30;60354;47.798;12.472;2023-01-29T10:35:22;0.75;70.28
72380;SHT30;60354;47.798;12.472;2023-01-29T10:37:52;0.44;72.39
72380;SHT30;60354;47.798;12.472;2023-01-29T10:40:34;0.38;72.20
72380;SHT30;60354;47.798;12.472;2023-01-29T10:43:08;0.90;71.10
72380;SHT30;60354;47.798;12.472;2023-01-29T10:45:45;1.06;71.56
72380;SHT30;60354;47.798;12.472;2023-01-29T10:50:51;1.20;68.79
72380;SHT30;60354;47.798;12.472;2023-01-29T11:01:03;1.40;71.13
72380;SHT30;60354;47.798;12.472;2023-01-29T11:03:30;1.55;69.92
72380;SHT30;60354;47.798;12.472;2023-01-29T11:05:58;1.27;69.82
72380;SHT30;60354;47.798;12.472;2023-01-29T11:08:36;1.45;70.50
72380;SHT30;60354;47.798;12.472;2023-01-29T11:11:12;1.51;69.88
72380;SHT30;60354;47.798;12.472;2023-01-29T11:14:25;1.50;70.25
72380;SHT30;60354;47.798;12.472;2023-01-29T11:16:45;1.44;70.69
72380;SHT30;60354;47.798;12.472;2023-01-29T11:19:12;1.44;70.35
72380;SHT30;60354;47.798;12.472;2023-01-29T11:21:58;1.48;68.92
72380;SHT30;60354;47.798;12.472;2023-01-29T11:24:24;1.55;69.67
72380;SHT30;60354;47.798;12.472;2023-01-29T11:26:52;1.38;69.96
72380;SHT30;60354;47.798;12.472;2023-01-29T11:32:02;1.38;70.24
72380;SHT30;60354;47.798;12.472;2023-01-29T11:34:29;1.14;70.95
72380;SHT30;60354;47.798;12.472;2023-01-29T11:39:28;1.16;71.67
72380;SHT30;60354;47.798;12.472;2023-01-29T11:42:02;1.23;71.23
72380;SHT30;60354;47.798;12.472;2023-01-29T11:47:06;1.22;71.52
72380;SHT30;60354;47.798;12.472;2023-01-29T11:49:34;1.50;70.24
72380;SHT30;60354;47.798;12.472;2023-01-29T11:52:05;1.64;69.38
72380;SHT30;60354;47.798;12.472;2023-01-29T11:54:36;1.59;69.93
72380;SHT30;60354;47.798;12.472;2023-01-29T11:57:02;1.51;69.35
72380;SHT30;60354;47.798;12.472;2023-01-29T11:59:42;1.52;70.39
72380;SHT30;60354;47.798;12.472;2023-01-29T12:02:42;1.55;69.07
72380;SHT30;60354;47.798;12.472;2023-01-29T12:05:21;1.52;68.54
72380;SHT30;60354;47.798;12.472;2023-01-29T12:07:58;1.40;68.11
72380;SHT30;60354;47.798;12.472;2023-01-29T12:15:46;1.45;68.79
72380;SHT30;60354;47.798;12.472;2023-01-29T12:18:31;1.76;69.35
72380;SHT30;60354;47.798;12.472;2023-01-29T12:21:14;1.92;67.51
72380;SHT30;60354;47.798;12.472;2023-01-29T12:26:09;2.30;73.41
72380;SHT30;60354;47.798;12.472;2023-01-29T12:29:04;2.20;65.75
72380;SHT30;60354;47.798;12.472;2023-01-29T12:31:45;2.09;65.93
72380;SHT30;60354;47.798;12.472;2023-01-29T12:34:23;2.13;67.21
72380;SHT30;60354;47.798;12.472;2023-01-29T12:37:20;2.20;66.86
72380;SHT30;60354;47.798;12.472;2023-01-29T12:39:44;2.32;69.45
72380;SHT30;60354;47.798;12.472;2023-01-29T12:42:16;2.37;68.16
72380;SHT30;60354;47.798;12.472;2023-01-29T12:44:45;2.41;68.12
72380;SHT30;60354;47.798;12.472;2023-01-29T12:47:21;2.58;68.26
72380;SHT30;60354;47.798;12.472;2023-01-29T12:49:52;2.40;66.36
72380;SHT30;60354;47.798;12.472;2023-01-29T12:52:32;2.43;66.67
72380;SHT30;60354;47.798;12.472;2023-01-29T12:55:05;2.23;65.68
72380;SHT30;60354;47.798;12.472;2023-01-29T12:57:52;2.23;66.18
72380;SHT30;60354;47.798;12.472;2023-01-29T13:00:31;2.36;66.97
72380;SHT30;60354;47.798;12.472;2023-01-29T13:03:20;2.33;66.40
72380;SHT30;60354;47.798;12.472;2023-01-29T13:08:22;2.01;67.73
72380;SHT30;60354;47.798;12.472;2023-01-29T13:10:49;2.03;67.17
72380;SHT30;60354;47.798;12.472;2023-01-29T13:15:44;1.74;67.15
72380;SHT30;60354;47.798;12.472;2023-01-29T13:20:38;1.92;68.08
72380;SHT30;60354;47.798;12.472;2023-01-29T13:23:15;2.12;68.42
72380;SHT30;60354;47.798;12.472;2023-01-29T13:25:42;2.20;67.79
72380;SHT30;60354;47.798;12.472;2023-01-29T13:28:19;2.25;68.47
72380;SHT30;60354;47.798;12.472;2023-01-29T13:30:45;2.29;67.70
72380;SHT30;60354;47.798;12.472;2023-01-29T13:33:22;2.19;68.66
72380;SHT30;60354;47.798;12.472;2023-01-29T13:35:48;2.27;67.26
72380;SHT30;60354;47.798;12.472;2023-01-29T13:38:25;1.64;68.23
72380;SHT30;60354;47.798;12.472;2023-01-29T13:40:55;1.43;68.81
72380;SHT30;60354;47.798;12.472;2023-01-29T13:43:23;1.36;69.39
72380;SHT30;60354;47.798;12.472;2023-01-29T13:45:51;1.23;69.73
72380;SHT30;60354;47.798;12.472;2023-01-29T13:48:22;1.37;70.14
72380;SHT30;60354;47.798;12.472;2023-01-29T13:50:50;1.41;69.63
72380;SHT30;60354;47.798;12.472;2023-01-29T13:53:34;1.33;70.33
72380;SHT30;60354;47.798;12.472;2023-01-29T13:58:57;1.31;70.24
72380;SHT30;60354;47.798;12.472;2023-01-29T14:06:54;1.44;70.53
72380;SHT30;60354;47.798;12.472;2023-01-29T14:11:59;1.37;71.00
72380;SHT30;60354;47.798;12.472;2023-01-29T14:17:16;1.43;69.45
72380;SHT30;60354;47.798;12.472;2023-01-29T14:20:02;1.41;70.46
72380;SHT30;60354;47.798;12.472;2023-01-29T14:22:41;1.08;71.19
72380;SHT30;60354;47.798;12.472;2023-01-29T14:25:15;0.86;73.06
72380;SHT30;60354;47.798;12.472;2023-01-29T14:27:46;1.17;77.79
72380;SHT30;60354;47.798;12.472;2023-01-29T14:30:16;1.28;73.62
72380;SHT30;60354;47.798;12.472;2023-01-29T14:32:47;1.14;73.39
72380;SHT30;60354;47.798;12.472;2023-01-29T14:35:21;1.08;73.25
72380;SHT30;60354;47.798;12.472;2023-01-29T14:38:00;0.96;73.82
72380;SHT30;60354;47.798;12.472;2023-01-29T14:40:28;0.82;74.44
72380;SHT30;60354;47.798;12.472;2023-01-29T14:43:14;0.68;74.57
72380;SHT30;60354;47.798;12.472;2023-01-29T14:45:49;0.73;74.53
72380;SHT30;60354;47.798;12.472;2023-01-29T14:51:06;0.73;74.82
72380;SHT30;60354;47.798;12.472;2023-01-29T14:53:50;0.82;74.52
72380;SHT30;60354;47.798;12.472;2023-01-29T14:58:50;0.93;75.08
72380;SHT30;60354;47.798;12.472;2023-01-29T15:03:57;1.07;73.91
72380;SHT30;60354;47.798;12.472;2023-01-29T15:06:45;1.10;74.18
72380;SHT30;60354;47.798;12.472;2023-01-29T15:09:19;1.16;74.31
72380;SHT30;60354;47.798;12.472;2023-01-29T15:11:56;1.16;73.84
72380;SHT30;60354;47.798;12.472;2023-01-29T15:14:28;1.12;73.60
72380;SHT30;60354;47.798;12.472;2023-01-29T15:19:40;1.10;74.24
72380;SHT30;60354;47.798;12.472;2023-01-29T15:22:21;1.01;75.78
72380;SHT30;60354;47.798;12.472;2023-01-29T15:25:12;0.95;75.59
72380;SHT30;60354;47.798;12.472;2023-01-29T15:27:42;0.87;74.55
72380;SHT30;60354;47.798;12.472;2023-01-29T15:30:14;0.96;74.83
72380;SHT30;60354;47.798;12.472;2023-01-29T15:32:41;0.89;76.03
72380;SHT30;60354;47.798;12.472;2023-01-29T15:35:09;0.72;77.00
72380;SHT30;60354;47.798;12.472;2023-01-29T15:37:36;0.65;76.74
72380;SHT30;60354;47.798;12.472;2023-01-29T15:40:03;0.69;75.91
72380;SHT30;60354;47.798;12.472;2023-01-29T15:42:43;0.59;77.46
72380;SHT30;60354;47.798;12.472;2023-01-29T15:45:24;0.37;77.39
72380;SHT30;60354;47.798;12.472;2023-01-29T15:47:54;0.41;77.13
72380;SHT30;60354;47.798;12.472;2023-01-29T15:50:21;0.37;76.73
72380;SHT30;60354;47.798;12.472;2023-01-29T15:52:49;0.32;76.29
72380;SHT30;60354;47.798;12.472;2023-01-29T15:55:15;0.35;76.62
72380;SHT30;60354;47.798;12.472;2023-01-29T15:57:43;0.32;77.08
72380;SHT30;60354;47.798;12.472;2023-01-29T16:00:21;0.32;77.42
72380;SHT30;60354;47.798;12.472;2023-01-29T16:02:47;0.31;77.78
72380;SHT30;60354;47.798;12.472;2023-01-29T16:05:15;0.35;77.90
72380;SHT30;60354;47.798;12.472;2023-01-29T16:07:42;0.35;78.28
72380;SHT30;60354;47.798;12.472;2023-01-29T16:10:35;0.34;78.91
72380;SHT30;60354;47.798;12.472;2023-01-29T16:13:01;0.38;78.37
72380;SHT30;60354;47.798;12.472;2023-01-29T16:15:37;0.42;78.58
72380;SHT30;60354;47.798;12.472;2023-01-29T16:18:20;0.45;78.23
72380;SHT30;60354;47.798;12.472;2023-01-29T16:20:51;0.45;77.90
72380;SHT30;60354;47.798;12.472;2023-01-29T16:23:29;0.46;77.76
72380;SHT30;60354;47.798;12.472;2023-01-29T16:26:01;0.46;77.95
72380;SHT30;60354;47.798;12.472;2023-01-29T16:28:27;0.42;78.43
72380;SHT30;60354;47.798;12.472;2023-01-29T16:30:57;0.34;79.55
72380;SHT30;60354;47.798;12.472;2023-01-29T16:33:37;0.15;80.31
72380;SHT30;60354;47.798;12.472;2023-01-29T16:36:14;0.10;80.82
72380;SHT30;60354;47.798;12.472;2023-01-29T16:38:40;0.05;81.08
72380;SHT30;60354;47.798;12.472;2023-01-29T16:43:51;0.00;80.00
72380;SHT30;60354;47.798;12.472;2023-01-29T16:46:23;0.05;79.76
72380;SHT30;60354;47.798;12.472;2023-01-29T16:48:51;0.08;79.60
72380;SHT30;60354;47.798;12.472;2023-01-29T16:51:21;0.11;80.26
72380;SHT30;60354;47.798;12.472;2023-01-29T16:54:07;0.03;80.42
72380;SHT30;60354;47.798;12.472;2023-01-29T16:56:37;0.05;80.46
72380;SHT30;60354;47.798;12.472;2023-01-29T16:59:04;0.05;80.03
72380;SHT30;60354;47.798;12.472;2023-01-29T17:01:31;0.10;79.30
72380;SHT30;60354;47.798;12.472;2023-01-29T17:03:59;0.07;79.55
72380;SHT30;60354;47.798;12.472;2023-01-29T17:06:26;0.11;79.76
72380;SHT30;60354;47.798;12.472;2023-01-29T17:08:52;0.10;79.85
72380;SHT30;60354;47.798;12.472;2023-01-29T17:11:44;0.10;80.47
72380;SHT30;60354;47.798;12.472;2023-01-29T17:14:16;0.11;80.87
72380;SHT30;60354;47.798;12.472;2023-01-29T17:17:03;0.08;81.69
72380;SHT30;60354;47.798;12.472;2023-01-29T17:19:30;-0.13;81.41
72380;SHT30;60354;47.798;12.472;2023-01-29T17:21:56;-0.23;82.47
72380;SHT30;60354;47.798;12.472;2023-01-29T17:24:23;-0.20;82.84
72380;SHT30;60354;47.798;12.472;2023-01-29T17:26:49;-0.30;82.69
72380;SHT30;60354;47.798;12.472;2023-01-29T17:29:20;-0.26;83.05
72380;SHT30;60354;47.798;12.472;2023-01-29T17:31:47;-0.23;83.11
72380;SHT30;60354;47.798;12.472;2023-01-29T17:34:15;-0.18;82.47
72380;SHT30;60354;47.798;12.472;2023-01-29T17:36:44;-0.11;81.71
72380;SHT30;60354;47.798;12.472;2023-01-29T17:41:42;-0.20;82.47
72380;SHT30;60354;47.798;12.472;2023-01-29T17:44:08;-0.18;81.21
72380;SHT30;60354;47.798;12.472;2023-01-29T17:46:35;-0.11;80.99
72380;SHT30;60354;47.798;12.472;2023-01-29T17:49:00;-0.14;81.88
72380;SHT30;60354;47.798;12.472;2023-01-29T17:51:28;-0.17;81.74
72380;SHT30;60354;47.798;12.472;2023-01-29T17:53:54;-0.18;81.77
72380;SHT30;60354;47.798;12.472;2023-01-29T17:56:25;-0.23;82.25
72380;SHT30;60354;47.798;12.472;2023-01-29T17:58:56;-0.21;82.26
72380;SHT30;60354;47.798;12.472;2023-01-29T18:01:21;-0.26;82.89
72380;SHT30;60354;47.798;12.472;2023-01-29T18:03:47;-0.21;82.73
72380;SHT30;60354;47.798;12.472;2023-01-29T18:06:27;-0.16;82.41
72380;SHT30;60354;47.798;12.472;2023-01-29T18:08:53;-0.10;82.59